Time;durP1;ratioP1;P1;durP2;ratioP2;P2;SDS_P1;SDS_P2;PMS_P1;PMS_P2;Temp;Humidity;BMP_temperature;BMP_pressure;BME280_temperature;BME280_humidity;BME280_pressure;Samples;Min_cycle;Max_cycle;Signal;HPM_P1;HPM_P2
2023/05/15 00:00:47;;;;;;;;;;;12.60;99.90;;;;;;5051495;28;19960;-61
2023/05/15 00:03:13;;;;;;;;;;;12.50;99.90;;;;;;5049779;28;19917;-61
2023/05/15 00:05:39;;;;;;;;;;;12.50;99.90;;;;;;5050817;28;19917;-62
2023/05/15 00:08:04;;;;;;;;;;;12.40;99.90;;;;;;5050387;28;19927;-61
2023/05/15 00:10:30;;;;;;;;;;;12.40;99.90;;;;;;5051281;28;19923;-61
2023/05/15 00:12:55;;;;;;;;;;;12.40;99.90;;;;;;5051520;28;19923;-62
2023/05/15 00:15:21;;;;;;;;;;;12.40;99.90;;;;;;5054622;28;19963;-61
2023/05/15 00:17:46;;;;;;;;;;;12.40;99.90;;;;;;5057070;28;19923;-62
2023/05/15 00:20:12;;;;;;;;;;;12.40;99.90;;;;;;5050612;28;20328;-62
2023/05/15 00:22:37;;;;;;;;;;;12.30;99.90;;;;;;5046118;28;19924;-61
2023/05/15 00:25:03;;;;;;;;;;;12.30;99.90;;;;;;5049507;28;20274;-61
2023/05/15 00:27:28;;;;;;;;;;;12.30;99.90;;;;;;5049322;28;19917;-62
2023/05/15 00:29:54;;;;;;;;;;;12.30;99.90;;;;;;5051187;28;20323;-62
2023/05/15 00:32:19;;;;;;;;;;;12.30;99.90;;;;;;5051597;28;20369;-60
2023/05/15 00:34:45;;;;;;;;;;;12.30;99.90;;;;;;5050388;28;19928;-61
2023/05/15 00:37:10;;;;;;;;;;;12.20;99.90;;;;;;5012581;28;1106732;-61
2023/05/15 00:39:36;;;;;;;;;;;12.20;99.90;;;;;;5051254;28;19920;-61
2023/05/15 00:42:03;;;;;;;;;;;12.20;99.90;;;;;;5052492;28;19974;-61
2023/05/15 00:44:30;;;;;;;;;;;12.20;99.90;;;;;;5051570;28;20273;-61
2023/05/15 00:46:56;;;;;;;;;;;12.20;99.90;;;;;;5051579;28;20330;-60
2023/05/15 00:49:22;;;;;;;;;;;12.20;99.90;;;;;;5051095;28;20199;-61
2023/05/15 00:51:48;;;;;;;;;;;12.20;99.90;;;;;;5051922;28;20063;-61
2023/05/15 00:54:13;;;;;;;;;;;12.20;99.90;;;;;;5051975;28;19975;-62
2023/05/15 00:56:39;;;;;;;;;;;12.20;99.90;;;;;;5050612;28;20373;-61
2023/05/15 00:59:05;;;;;;;;;;;12.30;99.90;;;;;;5051105;28;20007;-62
2023/05/15 01:01:33;;;;;;;;;;;12.30;99.90;;;;;;5051607;28;20029;-62
2023/05/15 01:04:01;;;;;;;;;;;12.30;99.90;;;;;;5051528;28;19921;-61
2023/05/15 01:06:28;;;;;;;;;;;12.30;99.90;;;;;;5051318;28;19927;-62
2023/05/15 01:08:55;;;;;;;;;;;12.30;99.90;;;;;;5051252;28;19918;-60
2023/05/15 01:11:23;;;;;;;;;;;12.30;99.90;;;;;;5050373;28;20008;-62
2023/05/15 01:13:48;;;;;;;;;;;12.30;99.90;;;;;;5049959;28;20353;-62
2023/05/15 01:16:14;;;;;;;;;;;12.30;99.90;;;;;;5051412;28;19986;-62
2023/05/15 01:18:39;;;;;;;;;;;12.30;99.90;;;;;;5050462;28;20301;-62
2023/05/15 01:21:23;;;;;;;;;;;12.30;99.90;;;;;;5051470;28;20366;-63
2023/05/15 01:24:07;;;;;;;;;;;12.20;99.90;;;;;;5050492;28;20296;-62
2023/05/15 01:26:51;;;;;;;;;;;12.20;99.90;;;;;;5043523;28;19917;-61
2023/05/15 01:29:17;;;;;;;;;;;12.20;99.90;;;;;;5037657;28;19962;-61
2023/05/15 01:31:46;;;;;;;;;;;12.20;99.90;;;;;;5047200;28;19920;-61
2023/05/15 01:34:12;;;;;;;;;;;12.20;99.90;;;;;;5049277;28;19974;-62
2023/05/15 01:36:41;;;;;;;;;;;12.20;99.90;;;;;;5050143;28;19967;-61
2023/05/15 01:39:09;;;;;;;;;;;12.20;99.90;;;;;;5050423;28;19956;-61
2023/05/15 01:41:44;;;;;;;;;;;12.10;99.90;;;;;;5050206;28;20381;-62
2023/05/15 01:44:13;;;;;;;;;;;12.10;99.90;;;;;;5049349;28;20451;-62
2023/05/15 01:46:41;;;;;;;;;;;12.10;99.90;;;;;;5050505;28;19924;-62
2023/05/15 01:49:08;;;;;;;;;;;12.10;99.90;;;;;;5050985;28;19916;-62
2023/05/15 01:51:35;;;;;;;;;;;12.10;99.90;;;;;;5050450;28;19923;-62
2023/05/15 01:54:02;;;;;;;;;;;12.10;99.90;;;;;;5050214;28;19921;-62
2023/05/15 01:56:27;;;;;;;;;;;12.10;99.90;;;;;;5049920;28;19927;-62
2023/05/15 01:58:54;;;;;;;;;;;12.10;99.90;;;;;;5050472;28;19917;-62
2023/05/15 02:01:19;;;;;;;;;;;12.10;99.90;;;;;;5050590;28;19995;-62
2023/05/15 02:03:45;;;;;;;;;;;12.10;99.90;;;;;;5050254;28;20396;-62
2023/05/15 02:06:12;;;;;;;;;;;12.00;99.90;;;;;;5050155;28;19920;-62
2023/05/15 02:08:38;;;;;;;;;;;12.00;99.90;;;;;;5048100;28;19921;-62
2023/05/15 02:11:04;;;;;;;;;;;12.00;99.90;;;;;;5049362;28;19927;-62
2023/05/15 02:13:30;;;;;;;;;;;12.00;99.90;;;;;;5050147;28;19925;-62
2023/05/15 02:15:56;;;;;;;;;;;12.00;99.90;;;;;;5050534;28;19917;-62
2023/05/15 02:18:22;;;;;;;;;;;11.90;99.90;;;;;;5049869;28;20361;-62
2023/05/15 02:20:48;;;;;;;;;;;11.90;99.90;;;;;;5050677;28;19927;-62
2023/05/15 02:23:13;;;;;;;;;;;11.90;99.90;;;;;;5049692;28;19923;-62
2023/05/15 02:25:54;;;;;;;;;;;11.90;99.90;;;;;;5050505;28;19974;-62
2023/05/15 02:28:27;;;;;;;;;;;11.90;99.90;;;;;;5049331;28;19917;-62
2023/05/15 02:31:13;;;;;;;;;;;11.90;99.90;;;;;;5050369;28;19923;-62
2023/05/15 02:33:46;;;;;;;;;;;11.80;99.90;;;;;;5047562;28;19920;-62
2023/05/15 02:36:16;;;;;;;;;;;11.80;99.90;;;;;;5050075;28;19924;-63
2023/05/15 02:38:51;;;;;;;;;;;11.80;99.90;;;;;;5049353;28;19931;-62
2023/05/15 02:41:18;;;;;;;;;;;11.80;99.90;;;;;;5044177;28;19916;-63
2023/05/15 02:43:44;;;;;;;;;;;11.70;99.90;;;;;;5048199;28;19940;-62
2023/05/15 02:46:11;;;;;;;;;;;11.70;99.90;;;;;;5048886;28;19932;-62
2023/05/15 02:48:38;;;;;;;;;;;11.80;99.90;;;;;;5049133;28;19936;-62
2023/05/15 02:51:03;;;;;;;;;;;11.80;99.90;;;;;;5050104;28;19920;-62
2023/05/15 02:53:29;;;;;;;;;;;11.70;99.90;;;;;;5054158;28;20446;-62
2023/05/15 02:55:55;;;;;;;;;;;11.70;99.90;;;;;;5051091;28;19916;-63
2023/05/15 02:58:20;;;;;;;;;;;11.70;99.90;;;;;;5048640;28;19916;-62
2023/05/15 03:00:45;;;;;;;;;;;11.70;99.90;;;;;;5049674;28;19924;-62
2023/05/15 03:03:11;;;;;;;;;;;11.70;99.90;;;;;;5049296;28;20134;-62
2023/05/15 03:05:37;;;;;;;;;;;11.60;99.90;;;;;;5049906;28;20011;-62
2023/05/15 03:08:02;;;;;;;;;;;11.70;99.90;;;;;;5048488;28;19924;-62
2023/05/15 03:10:28;;;;;;;;;;;11.60;99.90;;;;;;5050050;28;19916;-62
2023/05/15 03:12:57;;;;;;;;;;;11.60;99.90;;;;;;5031752;28;19924;-62
2023/05/15 03:15:22;;;;;;;;;;;11.50;99.90;;;;;;5049476;28;20021;-62
2023/05/15 03:17:48;;;;;;;;;;;11.60;99.90;;;;;;5048774;28;19975;-62
2023/05/15 03:20:13;;;;;;;;;;;11.60;99.90;;;;;;5049953;28;19967;-62
2023/05/15 03:22:39;;;;;;;;;;;11.50;99.90;;;;;;5049544;28;19992;-62
2023/05/15 03:25:05;;;;;;;;;;;11.50;99.90;;;;;;5049076;28;20408;-62
2023/05/15 03:27:31;;;;;;;;;;;11.50;99.90;;;;;;5048414;28;20022;-63
2023/05/15 03:29:57;;;;;;;;;;;11.50;99.90;;;;;;5049323;28;20385;-62
2023/05/15 03:32:22;;;;;;;;;;;11.40;99.90;;;;;;5049779;28;19920;-62
2023/05/15 03:34:47;;;;;;;;;;;11.40;99.90;;;;;;5049026;28;19920;-62
2023/05/15 03:37:13;;;;;;;;;;;11.40;99.90;;;;;;5047386;28;20415;-62
2023/05/15 03:39:38;;;;;;;;;;;11.40;99.90;;;;;;5048885;28;19924;-62
2023/05/15 03:42:04;;;;;;;;;;;11.50;99.90;;;;;;5049273;28;20412;-63
2023/05/15 03:44:30;;;;;;;;;;;11.50;99.90;;;;;;5048580;28;19970;-62
2023/05/15 03:46:55;;;;;;;;;;;11.50;99.90;;;;;;5049488;28;19920;-62
2023/05/15 03:49:21;;;;;;;;;;;11.40;99.90;;;;;;5048858;28;19921;-62
2023/05/15 03:51:46;;;;;;;;;;;11.40;99.90;;;;;;5050054;28;19944;-61
2023/05/15 03:54:11;;;;;;;;;;;11.40;99.90;;;;;;5048875;28;19928;-62
2023/05/15 03:56:37;;;;;;;;;;;11.30;99.90;;;;;;5049780;28;19917;-61
2023/05/15 03:59:03;;;;;;;;;;;11.30;99.90;;;;;;5051242;28;19924;-62
2023/05/15 04:01:28;;;;;;;;;;;11.30;99.90;;;;;;5053576;28;19940;-62
2023/05/15 04:03:54;;;;;;;;;;;11.30;99.90;;;;;;5052348;28;19928;-62
2023/05/15 04:06:19;;;;;;;;;;;11.30;99.90;;;;;;5052698;28;20035;-62
2023/05/15 04:08:45;;;;;;;;;;;11.20;99.90;;;;;;5052297;28;20301;-62
2023/05/15 04:11:11;;;;;;;;;;;11.20;99.90;;;;;;5051899;28;19917;-62
2023/05/15 04:13:36;;;;;;;;;;;11.20;99.90;;;;;;5051540;28;19927;-63
2023/05/15 04:16:03;;;;;;;;;;;11.30;99.90;;;;;;5052400;28;19928;-62
2023/05/15 04:18:28;;;;;;;;;;;11.30;99.90;;;;;;5051929;28;19932;-62
2023/05/15 04:20:54;;;;;;;;;;;11.30;99.90;;;;;;5051459;28;19916;-63
2023/05/15 04:23:19;;;;;;;;;;;11.30;99.90;;;;;;5052396;28;19966;-62
2023/05/15 04:25:45;;;;;;;;;;;11.30;99.90;;;;;;5052423;28;19916;-61
2023/05/15 04:28:11;;;;;;;;;;;11.20;99.90;;;;;;5049781;28;20007;-62
2023/05/15 04:30:37;;;;;;;;;;;11.20;99.90;;;;;;5052617;28;19923;-63
2023/05/15 04:33:02;;;;;;;;;;;11.20;99.90;;;;;;5051933;28;19920;-62
2023/05/15 04:35:29;;;;;;;;;;;11.20;99.90;;;;;;5051466;28;19916;-63
2023/05/15 04:37:54;;;;;;;;;;;11.20;99.90;;;;;;5050845;28;19917;-62
2023/05/15 04:40:20;;;;;;;;;;;11.20;99.90;;;;;;5052210;28;19970;-62
2023/05/15 04:42:46;;;;;;;;;;;11.20;99.90;;;;;;5050958;28;19978;-62
2023/05/15 04:45:11;;;;;;;;;;;11.20;99.90;;;;;;5051399;28;19931;-62
2023/05/15 04:47:37;;;;;;;;;;;11.20;99.90;;;;;;5051388;28;20008;-62
2023/05/15 04:50:02;;;;;;;;;;;11.20;99.90;;;;;;5051784;28;19960;-62
2023/05/15 04:52:28;;;;;;;;;;;11.20;99.90;;;;;;5052058;28;19920;-62
2023/05/15 04:54:54;;;;;;;;;;;11.20;99.90;;;;;;5051210;28;19924;-63
2023/05/15 04:57:20;;;;;;;;;;;11.20;99.90;;;;;;5050100;28;19967;-62
2023/05/15 04:59:46;;;;;;;;;;;11.20;99.90;;;;;;5049759;28;19921;-61
2023/05/15 05:02:12;;;;;;;;;;;11.20;99.90;;;;;;5050041;28;19921;-61
2023/05/15 05:04:37;;;;;;;;;;;11.20;99.90;;;;;;5045364;28;19921;-62
2023/05/15 05:07:04;;;;;;;;;;;11.20;99.90;;;;;;5041339;28;19923;-62
2023/05/15 05:09:30;;;;;;;;;;;11.20;99.90;;;;;;5047797;28;20427;-61
2023/05/15 05:12:01;;;;;;;;;;;11.20;99.90;;;;;;5042067;28;20457;-62
2023/05/15 05:14:27;;;;;;;;;;;11.20;99.90;;;;;;5044320;28;19927;-61
2023/05/15 05:16:52;;;;;;;;;;;11.20;99.90;;;;;;5051275;28;19917;-62
2023/05/15 05:19:18;;;;;;;;;;;11.20;99.90;;;;;;5050726;28;19921;-62
2023/05/15 05:21:43;;;;;;;;;;;11.20;99.90;;;;;;5051650;28;19921;-62
2023/05/15 05:24:09;;;;;;;;;;;11.20;99.90;;;;;;5051459;28;19920;-62
2023/05/15 05:26:34;;;;;;;;;;;11.20;99.90;;;;;;5050829;28;20359;-62
2023/05/15 05:29:00;;;;;;;;;;;11.20;99.90;;;;;;5032938;28;19999;-62
2023/05/15 05:31:25;;;;;;;;;;;11.20;99.90;;;;;;5036670;28;20015;-62
2023/05/15 05:33:51;;;;;;;;;;;11.20;99.90;;;;;;5038779;28;19967;-62
2023/05/15 05:36:17;;;;;;;;;;;11.20;99.90;;;;;;5050359;28;19960;-62
2023/05/15 05:38:42;;;;;;;;;;;11.20;99.90;;;;;;5050658;28;19924;-62
2023/05/15 05:41:08;;;;;;;;;;;11.10;99.90;;;;;;5050316;28;19928;-62
2023/05/15 05:43:33;;;;;;;;;;;11.20;99.90;;;;;;5049119;28;19932;-62
2023/05/15 05:46:00;;;;;;;;;;;11.20;99.90;;;;;;5050557;28;20016;-61
2023/05/15 05:48:25;;;;;;;;;;;11.20;99.90;;;;;;5050373;28;20184;-62
2023/05/15 05:50:51;;;;;;;;;;;11.30;99.90;;;;;;5050809;28;19920;-62
2023/05/15 05:53:16;;;;;;;;;;;11.30;99.90;;;;;;5048718;28;20363;-62
2023/05/15 05:55:42;;;;;;;;;;;11.30;99.90;;;;;;5049382;28;19923;-62
2023/05/15 05:58:08;;;;;;;;;;;11.30;99.90;;;;;;5044741;28;20396;-62
2023/05/15 06:00:33;;;;;;;;;;;11.30;99.90;;;;;;5049966;28;20393;-61
2023/05/15 06:02:59;;;;;;;;;;;11.20;99.90;;;;;;5049240;28;19917;-62
2023/05/15 06:05:25;;;;;;;;;;;11.30;99.90;;;;;;5048963;28;20458;-62
2023/05/15 06:07:51;;;;;;;;;;;11.20;99.90;;;;;;5049617;28;20328;-62
2023/05/15 06:10:17;;;;;;;;;;;11.30;99.90;;;;;;5050115;28;19917;-62
2023/05/15 06:12:42;;;;;;;;;;;11.30;99.90;;;;;;5050431;28;20389;-62
2023/05/15 06:15:08;;;;;;;;;;;11.30;99.90;;;;;;5047418;28;19920;-62
2023/05/15 06:17:33;;;;;;;;;;;11.30;99.90;;;;;;5039650;28;19917;-61
2023/05/15 06:19:59;;;;;;;;;;;11.30;99.90;;;;;;5041367;28;19963;-61
2023/05/15 06:22:25;;;;;;;;;;;11.30;99.90;;;;;;5045984;28;19955;-59
2023/05/15 06:24:50;;;;;;;;;;;11.30;99.90;;;;;;5049207;28;19927;-61
2023/05/15 06:27:16;;;;;;;;;;;11.30;99.90;;;;;;5047593;28;19950;-61
2023/05/15 06:29:41;;;;;;;;;;;11.30;99.90;;;;;;5048013;28;19926;-60
2023/05/15 06:32:07;;;;;;;;;;;11.30;99.90;;;;;;5050671;28;19917;-61
2023/05/15 06:34:32;;;;;;;;;;;11.30;99.90;;;;;;5048303;28;19921;-61
2023/05/15 06:36:58;;;;;;;;;;;11.30;99.90;;;;;;5049859;28;20190;-60
2023/05/15 06:39:24;;;;;;;;;;;11.30;99.90;;;;;;5047796;28;19963;-59
2023/05/15 06:41:50;;;;;;;;;;;11.40;99.90;;;;;;5049547;28;19927;-62
2023/05/15 06:44:15;;;;;;;;;;;11.30;99.90;;;;;;5046327;28;19917;-62
2023/05/15 06:46:41;;;;;;;;;;;11.30;99.90;;;;;;5039787;28;19971;-62
2023/05/15 06:49:06;;;;;;;;;;;11.30;99.90;;;;;;5042564;28;20535;-61
2023/05/15 06:51:32;;;;;;;;;;;11.30;99.90;;;;;;5044662;28;20507;-63
2023/05/15 06:53:57;;;;;;;;;;;11.40;99.90;;;;;;5047156;28;20016;-62
2023/05/15 06:56:23;;;;;;;;;;;11.40;99.90;;;;;;5032602;28;19999;-63
2023/05/15 06:58:48;;;;;;;;;;;11.50;99.90;;;;;;5048236;28;19916;-61
2023/05/15 07:01:14;;;;;;;;;;;11.50;99.90;;;;;;5049501;28;20212;-62
2023/05/15 07:03:41;;;;;;;;;;;11.60;99.90;;;;;;5052166;28;19986;-62
2023/05/15 07:06:07;;;;;;;;;;;11.60;99.90;;;;;;5051599;28;20008;-62
2023/05/15 07:08:32;;;;;;;;;;;11.60;99.90;;;;;;5052773;28;20003;-62
2023/05/15 07:10:58;;;;;;;;;;;11.70;99.90;;;;;;5052694;28;19917;-61
2023/05/15 07:13:23;;;;;;;;;;;11.90;99.90;;;;;;5054670;28;19927;-61
2023/05/15 07:15:49;;;;;;;;;;;12.00;99.90;;;;;;5051381;28;19917;-62
2023/05/15 07:18:14;;;;;;;;;;;12.10;99.90;;;;;;5046365;28;19943;-63
2023/05/15 07:20:40;;;;;;;;;;;12.30;99.90;;;;;;5054130;28;19917;-62
2023/05/15 07:23:05;;;;;;;;;;;12.50;99.90;;;;;;5050533;28;19951;-62
2023/05/15 07:25:31;;;;;;;;;;;12.70;99.90;;;;;;5045312;28;19987;-60
2023/05/15 07:27:56;;;;;;;;;;;12.80;99.90;;;;;;5048411;28;20003;-62
2023/05/15 07:30:22;;;;;;;;;;;12.90;99.90;;;;;;5052900;28;19921;-62
2023/05/15 07:32:48;;;;;;;;;;;12.90;99.90;;;;;;5049458;28;20346;-61
2023/05/15 07:35:13;;;;;;;;;;;13.00;99.90;;;;;;5048171;28;19943;-62
2023/05/15 07:37:39;;;;;;;;;;;13.10;99.90;;;;;;5042415;28;19964;-61
2023/05/15 07:40:05;;;;;;;;;;;13.20;99.90;;;;;;5051943;28;19920;-61
2023/05/15 07:42:31;;;;;;;;;;;13.30;99.90;;;;;;5052957;28;19917;-61
2023/05/15 07:44:56;;;;;;;;;;;13.50;99.90;;;;;;5046065;28;20373;-62
2023/05/15 07:47:22;;;;;;;;;;;13.70;99.90;;;;;;5044351;28;19939;-61
2023/05/15 07:49:47;;;;;;;;;;;13.90;99.90;;;;;;5049327;28;19977;-62
2023/05/15 07:52:13;;;;;;;;;;;14.10;99.90;;;;;;5049564;28;20431;-58
2023/05/15 07:54:40;;;;;;;;;;;14.30;99.90;;;;;;5049427;28;20015;-60
2023/05/15 07:57:06;;;;;;;;;;;14.50;99.90;;;;;;5051368;28;20355;-61
2023/05/15 07:59:31;;;;;;;;;;;14.50;99.90;;;;;;5048123;28;20015;-59
2023/05/15 08:01:57;;;;;;;;;;;14.60;99.90;;;;;;5051817;28;19916;-62
2023/05/15 08:04:22;;;;;;;;;;;14.70;99.90;;;;;;5049282;28;20327;-62
2023/05/15 08:06:48;;;;;;;;;;;14.90;99.90;;;;;;5052824;28;20019;-60
2023/05/15 08:09:13;;;;;;;;;;;15.00;99.90;;;;;;5053321;28;19927;-64
2023/05/15 08:11:39;;;;;;;;;;;15.10;99.90;;;;;;5048341;28;19966;-62
2023/05/15 08:14:04;;;;;;;;;;;15.20;99.90;;;;;;5061295;28;19920;-61
2023/05/15 08:16:30;;;;;;;;;;;15.30;99.90;;;;;;5046676;28;19917;-63
2023/05/15 08:19:00;;;;;;;;;;;15.50;99.90;;;;;;5051811;28;19920;-62
2023/05/15 08:21:26;;;;;;;;;;;15.70;99.90;;;;;;5050732;28;19923;-61
2023/05/15 08:23:51;;;;;;;;;;;15.80;99.90;;;;;;5050041;28;20214;-60
2023/05/15 08:26:17;;;;;;;;;;;15.90;99.90;;;;;;5050395;28;19939;-61
2023/05/15 08:28:43;;;;;;;;;;;15.90;99.90;;;;;;5049618;28;20357;-58
2023/05/15 08:31:08;;;;;;;;;;;16.00;99.90;;;;;;5051603;28;20289;-62
2023/05/15 08:33:34;;;;;;;;;;;16.10;99.90;;;;;;5050155;28;19928;-61
2023/05/15 08:35:59;;;;;;;;;;;16.20;99.90;;;;;;5046263;28;19917;-62
2023/05/15 08:38:24;;;;;;;;;;;16.20;99.90;;;;;;5049008;28;19917;-62
2023/05/15 08:40:51;;;;;;;;;;;16.20;99.90;;;;;;5050463;28;19924;-61
2023/05/15 08:43:17;;;;;;;;;;;16.30;99.90;;;;;;5045951;28;20245;-62
2023/05/15 08:45:42;;;;;;;;;;;16.40;99.90;;;;;;5046510;28;20016;-61
2023/05/15 08:48:10;;;;;;;;;;;16.50;99.90;;;;;;5046230;28;20455;-61
2023/05/15 08:50:37;;;;;;;;;;;16.60;99.90;;;;;;5051833;28;20465;-62
2023/05/15 08:53:03;;;;;;;;;;;16.70;99.90;;;;;;5050415;28;19921;-63
2023/05/15 08:55:28;;;;;;;;;;;16.80;99.90;;;;;;5047417;28;19920;-62
2023/05/15 08:57:54;;;;;;;;;;;16.80;99.90;;;;;;5045175;28;19921;-61
2023/05/15 09:00:21;;;;;;;;;;;16.90;99.90;;;;;;5049346;28;19920;-62
2023/05/15 09:02:46;;;;;;;;;;;17.10;99.90;;;;;;5027420;28;20248;-61
2023/05/15 09:05:12;;;;;;;;;;;17.30;99.90;;;;;;5050338;28;20372;-61
2023/05/15 09:07:39;;;;;;;;;;;17.40;99.90;;;;;;5045354;28;19978;-61
2023/05/15 09:10:05;;;;;;;;;;;17.50;99.90;;;;;;5050409;28;19916;-63
2023/05/15 09:12:35;;;;;;;;;;;17.60;99.90;;;;;;5046805;28;19982;-60
2023/05/15 09:15:10;;;;;;;;;;;17.70;99.90;;;;;;5046054;28;20447;-62
2023/05/15 09:17:35;;;;;;;;;;;17.80;99.90;;;;;;5044837;28;20389;-61
2023/05/15 09:20:04;;;;;;;;;;;17.90;99.90;;;;;;5053958;28;20311;-61
2023/05/15 09:22:32;;;;;;;;;;;18.10;99.90;;;;;;5051449;28;19917;-61
2023/05/15 09:24:58;;;;;;;;;;;18.20;99.90;;;;;;5046115;28;19917;-61
2023/05/15 09:27:23;;;;;;;;;;;18.20;99.90;;;;;;5047444;28;19924;-62
2023/05/15 09:29:53;;;;;;;;;;;18.30;99.90;;;;;;5051036;28;19921;-61
2023/05/15 09:32:18;;;;;;;;;;;18.30;99.90;;;;;;5035247;28;20369;-61
2023/05/15 09:34:45;;;;;;;;;;;18.40;99.90;;;;;;5046226;28;19928;-63
2023/05/15 09:37:26;;;;;;;;;;;18.50;99.90;;;;;;5048393;28;20481;-61
2023/05/15 09:39:51;;;;;;;;;;;18.50;99.90;;;;;;5045325;28;19956;-58
2023/05/15 09:42:17;;;;;;;;;;;18.50;99.90;;;;;;5027724;28;19978;-59
2023/05/15 09:44:42;;;;;;;;;;;18.60;99.90;;;;;;5043544;28;19920;-59
2023/05/15 09:47:09;;;;;;;;;;;18.60;99.90;;;;;;5047149;28;19924;-59
2023/05/15 09:49:34;;;;;;;;;;;18.80;99.90;;;;;;5045902;28;20407;-59
2023/05/15 09:52:00;;;;;;;;;;;18.90;99.90;;;;;;5047794;28;19928;-58
2023/05/15 09:54:26;;;;;;;;;;;19.00;99.90;;;;;;5044501;28;19920;-59
2023/05/15 09:56:52;;;;;;;;;;;19.10;99.90;;;;;;5047677;28;19920;-60
2023/05/15 09:59:20;;;;;;;;;;;19.20;99.90;;;;;;5046300;28;19923;-59
2023/05/15 10:01:47;;;;;;;;;;;19.20;99.90;;;;;;5049607;28;19916;-58
2023/05/15 10:04:13;;;;;;;;;;;19.30;99.80;;;;;;5047390;28;20324;-60
2023/05/15 10:06:39;;;;;;;;;;;19.40;99.50;;;;;;5049205;28;19916;-59
2023/05/15 10:09:05;;;;;;;;;;;19.40;99.90;;;;;;5044453;28;20280;-59
2023/05/15 10:11:35;;;;;;;;;;;19.60;99.90;;;;;;5045719;28;20011;-59
2023/05/15 10:14:08;;;;;;;;;;;19.60;99.60;;;;;;5044528;28;20444;-59
2023/05/15 10:16:34;;;;;;;;;;;19.70;99.00;;;;;;5046256;28;20021;-59
2023/05/15 10:19:04;;;;;;;;;;;19.80;99.20;;;;;;5045196;28;19995;-59
2023/05/15 10:21:33;;;;;;;;;;;19.80;98.50;;;;;;5044138;28;19924;-59
2023/05/15 10:23:59;;;;;;;;;;;19.80;99.70;;;;;;5045232;28;20320;-59
2023/05/15 10:26:34;;;;;;;;;;;20.00;99.00;;;;;;5047898;28;19999;-59
2023/05/15 10:29:01;;;;;;;;;;;20.00;99.40;;;;;;5045917;28;20357;-59
2023/05/15 10:31:27;;;;;;;;;;;20.10;99.00;;;;;;5051747;28;20018;-60
2023/05/15 10:33:54;;;;;;;;;;;20.10;98.40;;;;;;5044889;28;19921;-59
2023/05/15 10:36:19;;;;;;;;;;;20.10;98.40;;;;;;5045685;28;20389;-59
2023/05/15 10:38:46;;;;;;;;;;;20.10;98.70;;;;;;5045871;28;20003;-59
2023/05/15 10:41:12;;;;;;;;;;;20.20;98.60;;;;;;5043856;28;19973;-60
2023/05/15 10:43:40;;;;;;;;;;;20.30;98.30;;;;;;5045033;28;19920;-59
2023/05/15 10:46:05;;;;;;;;;;;20.30;97.80;;;;;;5049454;28;19917;-59
2023/05/15 10:48:32;;;;;;;;;;;20.40;97.20;;;;;;5051060;28;20396;-59
2023/05/15 10:50:58;;;;;;;;;;;20.50;96.90;;;;;;5047164;28;19927;-59
2023/05/15 10:53:24;;;;;;;;;;;20.60;97.20;;;;;;5046213;28;19920;-59
2023/05/15 10:55:50;;;;;;;;;;;20.70;96.10;;;;;;5045529;28;20164;-59
2023/05/15 10:58:16;;;;;;;;;;;20.70;96.30;;;;;;5047439;28;19917;-59
2023/05/15 11:00:42;;;;;;;;;;;20.70;95.60;;;;;;5049832;28;19924;-59
2023/05/15 11:03:12;;;;;;;;;;;20.60;96.10;;;;;;5046734;28;20377;-60
2023/05/15 11:05:56;;;;;;;;;;;20.60;96.20;;;;;;5048104;28;19916;-60
2023/05/15 11:08:27;;;;;;;;;;;20.70;96.20;;;;;;5046422;28;20039;-59
2023/05/15 11:10:53;;;;;;;;;;;20.80;96.50;;;;;;5049145;28;19963;-60
2023/05/15 11:13:19;;;;;;;;;;;20.80;96.50;;;;;;5048516;28;20158;-59
2023/05/15 11:15:45;;;;;;;;;;;20.80;96.20;;;;;;5048844;28;19917;-60
2023/05/15 11:18:11;;;;;;;;;;;20.90;94.40;;;;;;5051936;28;19916;-60
2023/05/15 11:20:38;;;;;;;;;;;20.90;95.10;;;;;;5049927;28;19921;-59
2023/05/15 11:23:03;;;;;;;;;;;20.70;95.10;;;;;;5051399;28;20050;-58
2023/05/15 11:25:30;;;;;;;;;;;20.60;95.40;;;;;;5054382;28;20510;-59
2023/05/15 11:27:56;;;;;;;;;;;20.50;95.80;;;;;;5050122;28;19995;-58
2023/05/15 11:30:23;;;;;;;;;;;20.50;96.60;;;;;;5055995;28;20027;-59
2023/05/15 11:32:59;;;;;;;;;;;20.60;97.00;;;;;;5036783;28;19928;-60
2023/05/15 11:35:41;;;;;;;;;;;20.80;97.50;;;;;;5047834;28;19932;-60
2023/05/15 11:38:10;;;;;;;;;;;20.80;96.30;;;;;;5045854;28;20015;-59
2023/05/15 11:40:48;;;;;;;;;;;20.80;95.80;;;;;;5045238;28;19924;-59
2023/05/15 11:43:18;;;;;;;;;;;21.00;96.80;;;;;;5050407;28;19916;-59
2023/05/15 11:45:45;;;;;;;;;;;21.20;96.40;;;;;;5052107;28;19925;-59
2023/05/15 11:48:13;;;;;;;;;;;21.20;96.30;;;;;;5046621;28;19929;-59
2023/05/15 11:50:40;;;;;;;;;;;21.30;96.30;;;;;;5051060;28;19975;-58
2023/05/15 11:53:06;;;;;;;;;;;21.40;96.80;;;;;;5045763;28;19920;-59
2023/05/15 11:55:33;;;;;;;;;;;21.50;96.20;;;;;;5047146;28;19921;-60
2023/05/15 11:57:59;;;;;;;;;;;21.50;95.80;;;;;;5050792;28;19920;-61
2023/05/15 12:00:25;;;;;;;;;;;21.60;95.80;;;;;;5047375;28;19923;-61
2023/05/15 12:02:51;;;;;;;;;;;21.60;96.00;;;;;;5052582;28;19916;-62
2023/05/15 12:05:16;;;;;;;;;;;21.60;96.10;;;;;;5046691;28;19947;-62
2023/05/15 12:07:42;;;;;;;;;;;21.60;95.90;;;;;;5041635;28;20360;-64
2023/05/15 12:10:08;;;;;;;;;;;21.70;96.00;;;;;;5048587;28;19917;-63
2023/05/15 12:12:35;;;;;;;;;;;21.80;95.70;;;;;;5050422;28;20405;-61
2023/05/15 12:15:01;;;;;;;;;;;21.90;95.40;;;;;;5050290;28;19921;-62
2023/05/15 12:17:26;;;;;;;;;;;21.90;95.20;;;;;;5048192;28;20441;-62
2023/05/15 12:19:53;;;;;;;;;;;21.90;95.80;;;;;;5050930;28;20332;-62
2023/05/15 12:22:18;;;;;;;;;;;22.00;96.10;;;;;;5052296;28;19917;-62
2023/05/15 12:24:44;;;;;;;;;;;22.00;95.70;;;;;;5049384;28;19950;-62
2023/05/15 12:27:11;;;;;;;;;;;22.10;95.40;;;;;;5050416;28;20403;-62
2023/05/15 12:29:37;;;;;;;;;;;22.10;94.80;;;;;;5045586;28;19960;-61
2023/05/15 12:32:03;;;;;;;;;;;22.10;94.50;;;;;;5053582;28;19999;-62
2023/05/15 12:34:29;;;;;;;;;;;22.10;95.10;;;;;;5047873;28;19925;-62
2023/05/15 12:36:55;;;;;;;;;;;22.10;94.30;;;;;;5045818;28;20195;-63
2023/05/15 12:39:20;;;;;;;;;;;22.00;93.90;;;;;;5052312;28;19946;-62
2023/05/15 12:41:46;;;;;;;;;;;21.90;93.90;;;;;;5050257;28;19920;-62
2023/05/15 12:44:17;;;;;;;;;;;21.70;94.20;;;;;;5047488;28;20551;-62
2023/05/15 12:46:43;;;;;;;;;;;21.70;94.40;;;;;;5048043;28;19921;-63
2023/05/15 12:49:08;;;;;;;;;;;21.60;94.40;;;;;;5044406;28;19924;-63
2023/05/15 12:51:40;;;;;;;;;;;21.60;94.60;;;;;;5030826;28;19970;-62
2023/05/15 12:54:15;;;;;;;;;;;21.60;93.90;;;;;;5047674;28;19920;-62
2023/05/15 12:56:40;;;;;;;;;;;21.70;94.20;;;;;;5049115;28;19924;-62
2023/05/15 12:59:06;;;;;;;;;;;21.70;94.30;;;;;;5048444;28;19935;-62
2023/05/15 13:01:32;;;;;;;;;;;21.70;94.20;;;;;;5048021;28;20389;-62
2023/05/15 13:03:57;;;;;;;;;;;21.80;94.90;;;;;;5047333;28;20429;-62
2023/05/15 13:06:23;;;;;;;;;;;21.90;94.90;;;;;;5039847;28;19920;-62
2023/05/15 13:08:49;;;;;;;;;;;21.90;94.40;;;;;;5047790;28;19924;-62
2023/05/15 13:11:15;;;;;;;;;;;22.00;93.80;;;;;;5046444;28;20278;-62
2023/05/15 13:13:42;;;;;;;;;;;21.90;93.60;;;;;;5032232;28;19929;-62
2023/05/15 13:16:16;;;;;;;;;;;21.80;93.50;;;;;;5049295;28;19924;-62
2023/05/15 13:18:41;;;;;;;;;;;21.60;93.20;;;;;;5046529;28;19924;-62
2023/05/15 13:21:07;;;;;;;;;;;21.50;93.40;;;;;;5048827;28;19924;-61
2023/05/15 13:23:32;;;;;;;;;;;21.40;93.10;;;;;;5053846;28;20351;-62
2023/05/15 13:25:58;;;;;;;;;;;21.20;93.40;;;;;;5053490;28;20337;-62
2023/05/15 13:28:23;;;;;;;;;;;21.00;94.10;;;;;;5046151;28;19924;-61
2023/05/15 13:30:50;;;;;;;;;;;20.90;94.40;;;;;;5047395;28;19916;-61
2023/05/15 13:33:15;;;;;;;;;;;20.90;95.00;;;;;;5048799;28;20317;-62
2023/05/15 13:35:41;;;;;;;;;;;21.00;94.00;;;;;;5046321;28;19929;-62
2023/05/15 13:38:07;;;;;;;;;;;21.00;94.70;;;;;;5047045;28;19939;-61
2023/05/15 13:40:35;;;;;;;;;;;21.10;95.00;;;;;;5047205;28;19916;-62
2023/05/15 13:43:01;;;;;;;;;;;21.20;95.10;;;;;;5049506;28;19962;-62
2023/05/15 13:45:27;;;;;;;;;;;21.30;95.80;;;;;;5044499;28;20096;-62
2023/05/15 13:47:53;;;;;;;;;;;21.50;96.10;;;;;;5047522;28;19917;-62
2023/05/15 13:50:19;;;;;;;;;;;21.70;95.20;;;;;;5047780;28;20011;-62
2023/05/15 13:52:45;;;;;;;;;;;21.70;95.00;;;;;;5032978;28;20046;-62
2023/05/15 13:55:11;;;;;;;;;;;21.70;94.60;;;;;;5043538;28;19921;-62
2023/05/15 13:57:40;;;;;;;;;;;21.70;94.90;;;;;;5046484;28;19927;-62
2023/05/15 14:00:06;;;;;;;;;;;21.70;94.20;;;;;;5042897;28;20345;-62
2023/05/15 14:02:32;;;;;;;;;;;21.50;94.10;;;;;;5045436;28;19956;-62
2023/05/15 14:04:58;;;;;;;;;;;21.40;94.10;;;;;;5047571;28;19963;-61
2023/05/15 14:07:23;;;;;;;;;;;21.20;94.70;;;;;;5046515;28;19923;-64
2023/05/15 14:09:51;;;;;;;;;;;21.20;94.90;;;;;;5047252;28;19968;-62
2023/05/15 14:12:17;;;;;;;;;;;21.10;94.40;;;;;;5045511;28;20007;-63